createdAt,value
2017-09-06T00:01:28.373Z,79.60
2017-09-06T00:03:55.944Z,79.50
2017-09-06T00:06:23.479Z,79.70
2017-09-06T00:08:51.028Z,79.60
2017-09-06T00:11:18.583Z,79.20
2017-09-06T00:13:46.148Z,79.10
2017-09-06T00:16:13.702Z,79.30
2017-09-06T00:18:41.238Z,79.30
2017-09-06T00:21:08.820Z,79.50
2017-09-06T00:23:36.368Z,79.40
2017-09-06T00:26:04.747Z,79.80
2017-09-06T00:28:32.318Z,80.00
2017-09-06T00:30:59.844Z,79.90
2017-09-06T00:33:27.388Z,79.90
2017-09-06T00:35:54.931Z,79.80
2017-09-06T00:38:22.505Z,80.00
2017-09-06T00:40:50.095Z,80.10
2017-09-06T00:43:18.050Z,79.60
2017-09-06T00:45:45.585Z,79.30
2017-09-06T00:48:13.167Z,79.60
2017-09-06T00:50:40.724Z,79.40
2017-09-06T00:53:08.301Z,79.10
2017-09-06T00:55:35.857Z,79.30
2017-09-06T00:58:03.462Z,79.40
2017-09-06T01:00:31.045Z,79.40
2017-09-06T01:02:58.599Z,79.50
2017-09-06T01:05:26.178Z,79.40
2017-09-06T01:07:53.781Z,79.40
2017-09-06T01:10:21.337Z,79.60
2017-09-06T01:12:48.960Z,79.60
2017-09-06T01:15:16.697Z,79.40
2017-09-06T01:17:44.259Z,79.50
2017-09-06T01:20:11.838Z,79.40
2017-09-06T01:22:39.403Z,79.40
2017-09-06T01:25:06.980Z,79.50
2017-09-06T01:27:34.554Z,79.80
2017-09-06T01:30:02.106Z,79.80
2017-09-06T01:32:29.645Z,79.80
2017-09-06T01:34:57.202Z,80.00
2017-09-06T01:37:25.699Z,79.90
2017-09-06T01:39:53.230Z,80.20
2017-09-06T01:42:20.810Z,80.60
2017-09-06T01:44:48.337Z,81.00
2017-09-06T01:47:15.913Z,81.40
2017-09-06T01:49:43.499Z,81.70
2017-09-06T01:52:11.078Z,82.00
2017-09-06T01:54:38.666Z,82.10
2017-09-06T01:57:06.227Z,82.10
2017-09-06T01:59:33.812Z,82.40
2017-09-06T02:02:01.391Z,82.40
2017-09-06T02:04:28.956Z,82.70
2017-09-06T02:06:56.570Z,83.00
2017-09-06T02:09:24.101Z,83.20
2017-09-06T02:11:51.656Z,83.90
2017-09-06T02:14:20.074Z,84.20
2017-09-06T02:16:47.682Z,84.30
2017-09-06T02:19:15.287Z,84.60
2017-09-06T02:21:42.854Z,84.70
2017-09-06T02:24:10.412Z,84.90
2017-09-06T02:26:38.046Z,85.20
2017-09-06T02:29:05.609Z,85.10
2017-09-06T02:31:33.176Z,85.50
2017-09-06T02:34:08.356Z,86.80
2017-09-06T02:36:35.936Z,86.30
2017-09-06T02:39:03.530Z,86.90
2017-09-06T02:41:31.157Z,87.20
2017-09-06T02:43:58.743Z,87.70
2017-09-06T02:46:26.763Z,87.80
2017-09-06T02:48:54.351Z,88.00
2017-09-06T02:51:21.913Z,88.40
2017-09-06T02:53:49.492Z,89.10
2017-09-06T02:56:17.057Z,89.40
2017-09-06T02:58:44.648Z,89.80
2017-09-06T03:01:12.211Z,89.90
2017-09-06T03:03:39.792Z,90.10
2017-09-06T03:06:07.380Z,90.10
2017-09-06T03:08:34.930Z,90.10
2017-09-06T03:11:02.501Z,90.30
2017-09-06T03:13:30.105Z,90.40
2017-09-06T03:15:57.662Z,90.60
2017-09-06T03:18:26.035Z,90.80
2017-09-06T03:20:53.600Z,90.80
2017-09-06T03:23:21.170Z,90.80
2017-09-06T03:25:48.732Z,90.70
2017-09-06T03:28:16.289Z,90.70
2017-09-06T03:30:43.875Z,90.90
2017-09-06T03:33:11.434Z,91.00
2017-09-06T03:35:38.974Z,91.10
2017-09-06T03:38:06.521Z,91.20
2017-09-06T03:40:34.071Z,91.20
2017-09-06T03:43:01.664Z,91.30
2017-09-06T03:45:29.234Z,91.30
2017-09-06T03:47:56.783Z,91.40
2017-09-06T03:50:24.341Z,91.50
2017-09-06T03:52:51.923Z,91.50
2017-09-06T03:55:19.522Z,91.30
2017-09-06T03:57:47.061Z,91.30
2017-09-06T04:00:14.626Z,91.20
2017-09-06T04:02:42.216Z,90.90
2017-09-06T04:05:10.121Z,90.70
2017-09-06T04:07:37.667Z,90.70
2017-09-06T04:10:05.244Z,90.60
2017-09-06T04:12:32.831Z,90.40
2017-09-06T04:15:00.390Z,90.30
2017-09-06T04:17:27.961Z,90.30
2017-09-06T04:19:55.583Z,90.30
2017-09-06T04:22:23.737Z,90.20
2017-09-06T04:24:51.344Z,90.00
2017-09-06T04:27:18.913Z,89.90
2017-09-06T04:29:46.474Z,90.00
2017-09-06T04:32:14.066Z,89.80
2017-09-06T04:34:41.632Z,89.90
2017-09-06T04:37:09.183Z,89.40
2017-09-06T04:39:36.783Z,89.30
2017-09-06T04:42:04.326Z,89.30
2017-09-06T04:44:31.876Z,89.10
2017-09-06T04:46:59.436Z,88.90
2017-09-06T04:49:27.010Z,88.80
2017-09-06T04:51:54.657Z,89.40
2017-09-06T04:54:22.234Z,90.40
2017-09-06T04:56:50.585Z,90.20
2017-09-06T04:59:18.145Z,90.20
2017-09-06T05:01:45.718Z,90.20
2017-09-06T05:04:13.781Z,90.30
2017-09-06T05:06:41.578Z,90.30
2017-09-06T05:09:09.506Z,90.30
2017-09-06T05:11:37.074Z,90.40
2017-09-06T05:14:04.673Z,90.20
2017-09-06T05:16:32.214Z,90.50
2017-09-06T05:18:59.797Z,90.50
2017-09-06T05:21:27.364Z,90.50
2017-09-06T05:23:54.941Z,90.40
2017-09-06T05:26:22.513Z,90.20
2017-09-06T05:28:51.010Z,90.20
2017-09-06T05:31:18.569Z,90.40
2017-09-06T05:33:46.752Z,90.40
2017-09-06T05:36:14.313Z,90.40
2017-09-06T05:38:41.881Z,90.20
2017-09-06T05:41:09.420Z,90.20
2017-09-06T05:43:37.010Z,90.20
2017-09-06T05:46:04.599Z,90.20
2017-09-06T05:48:32.178Z,90.00
2017-09-06T05:50:59.746Z,90.00
2017-09-06T05:53:27.314Z,89.80
2017-09-06T05:55:54.884Z,89.50
2017-09-06T05:58:22.462Z,89.20
2017-09-06T06:00:50.012Z,88.90
2017-09-06T06:03:17.598Z,88.60
2017-09-06T06:05:45.147Z,88.90
2017-09-06T06:08:12.710Z,88.60
2017-09-06T06:10:40.272Z,88.20
2017-09-06T06:13:07.813Z,88.40
2017-09-06T06:15:35.395Z,88.40
2017-09-06T06:18:02.963Z,88.00
2017-09-06T06:20:30.527Z,87.90
2017-09-06T06:22:58.101Z,87.40
2017-09-06T06:25:25.666Z,87.00
2017-09-06T06:27:53.227Z,87.10
2017-09-06T06:30:21.527Z,86.80
2017-09-06T06:32:50.134Z,86.90
2017-09-06T06:35:17.719Z,87.00
2017-09-06T06:37:45.245Z,87.10
2017-09-06T06:40:13.668Z,87.30
2017-09-06T06:42:42.148Z,87.10
2017-09-06T06:45:09.753Z,87.60
2017-09-06T06:47:38.271Z,87.50
2017-09-06T06:50:05.849Z,88.10
2017-09-06T06:52:33.399Z,88.50
2017-09-06T06:55:00.961Z,89.20
2017-09-06T06:57:28.553Z,88.70
2017-09-06T06:59:56.091Z,88.70
2017-09-06T07:02:23.658Z,88.80
2017-09-06T07:04:51.249Z,89.40
2017-09-06T07:07:18.804Z,89.70
2017-09-06T07:09:46.392Z,90.20
2017-09-06T07:12:14.658Z,90.30
2017-09-06T07:14:42.189Z,90.20
2017-09-06T07:17:09.774Z,90.20
2017-09-06T07:19:37.309Z,90.50
2017-09-06T07:22:04.901Z,90.50
2017-09-06T07:24:32.552Z,90.40
2017-09-06T07:27:00.115Z,90.30
2017-09-06T07:29:27.719Z,90.50
2017-09-06T07:31:55.309Z,90.00
2017-09-06T07:34:22.914Z,89.80
2017-09-06T07:36:50.482Z,90.00
2017-09-06T07:39:18.046Z,89.00
2017-09-06T07:41:45.659Z,88.10
2017-09-06T07:44:13.271Z,87.50
2017-09-06T07:46:40.846Z,88.20
2017-09-06T07:49:08.403Z,88.50
2017-09-06T07:51:35.970Z,87.70
2017-09-06T07:54:03.550Z,88.80
2017-09-06T07:56:31.180Z,90.20
2017-09-06T07:58:58.780Z,90.00
2017-09-06T08:01:26.361Z,90.00
2017-09-06T08:03:53.951Z,90.80
2017-09-06T08:06:21.510Z,91.00
2017-09-06T08:08:49.132Z,91.60
2017-09-06T08:11:16.714Z,91.90
2017-09-06T08:13:44.285Z,91.50
2017-09-06T08:16:11.843Z,91.50
2017-09-06T08:18:39.422Z,91.20
2017-09-06T08:21:06.980Z,92.10
2017-09-06T08:23:34.561Z,91.80
2017-09-06T08:26:02.170Z,91.30
2017-09-06T08:28:29.736Z,91.00
2017-09-06T08:30:57.294Z,90.90
2017-09-06T08:33:24.887Z,90.70
2017-09-06T08:35:52.442Z,90.50
2017-09-06T08:38:20.037Z,90.40
2017-09-06T08:40:47.641Z,90.60
2017-09-06T08:43:15.194Z,90.40
2017-09-06T08:45:43.067Z,90.40
2017-09-06T08:48:10.640Z,90.00
2017-09-06T08:50:38.707Z,90.90
2017-09-06T08:53:06.307Z,90.50
2017-09-06T08:55:33.859Z,91.40
2017-09-06T08:58:01.443Z,92.00
2017-09-06T09:00:28.994Z,91.30
2017-09-06T09:02:56.555Z,91.50
2017-09-06T09:05:24.112Z,91.50
2017-09-06T09:07:51.675Z,91.80
2017-09-06T09:10:19.247Z,92.30
2017-09-06T09:12:46.843Z,91.90
2017-09-06T09:15:14.522Z,92.00
2017-09-06T09:17:42.114Z,91.90
2017-09-06T09:20:09.725Z,91.30
2017-09-06T09:22:37.321Z,91.50
2017-09-06T09:25:04.898Z,90.40
2017-09-06T09:27:32.493Z,90.30
2017-09-06T09:30:00.113Z,90.30
2017-09-06T09:32:27.752Z,89.20
2017-09-06T09:34:55.313Z,87.80
2017-09-06T09:37:22.909Z,87.60
2017-09-06T09:39:50.461Z,87.60
2017-09-06T09:42:18.091Z,88.70
2017-09-06T09:44:45.713Z,87.90
2017-09-06T09:47:13.270Z,86.90
2017-09-06T09:49:41.728Z,86.20
2017-09-06T09:52:09.309Z,86.20
2017-09-06T09:54:36.928Z,84.00
2017-09-06T09:57:04.573Z,83.00
2017-09-06T09:59:32.151Z,81.30
2017-09-06T10:01:59.729Z,81.20
2017-09-06T10:04:27.277Z,80.70
2017-09-06T10:06:54.909Z,81.20
2017-09-06T10:09:22.465Z,81.90
2017-09-06T10:11:50.950Z,79.40
2017-09-06T10:14:18.564Z,77.40
2017-09-06T10:16:46.129Z,78.50
2017-09-06T10:19:13.730Z,77.20
2017-09-06T10:21:41.289Z,75.00
2017-09-06T10:24:08.853Z,74.60
2017-09-06T10:26:36.440Z,75.00
2017-09-06T10:29:04.103Z,74.70
2017-09-06T10:31:31.717Z,72.60
2017-09-06T10:33:59.335Z,69.30
2017-09-06T10:36:26.934Z,68.60
2017-09-06T10:38:54.501Z,68.60
2017-09-06T10:41:22.078Z,67.40
2017-09-06T10:43:49.665Z,66.40
2017-09-06T10:46:17.961Z,67.30
2017-09-06T10:48:45.575Z,66.40
2017-09-06T10:51:13.150Z,65.90
2017-09-06T10:53:40.735Z,65.10
2017-09-06T10:56:08.304Z,63.70
2017-09-06T10:58:35.855Z,62.60
2017-09-06T11:01:03.449Z,62.50
2017-09-06T11:03:31.637Z,63.70
2017-09-06T11:05:59.197Z,64.70
2017-09-06T11:08:26.806Z,64.50
2017-09-06T11:10:54.341Z,64.40
2017-09-06T11:13:21.962Z,64.30
2017-09-06T11:15:49.517Z,60.90
2017-09-06T11:18:17.038Z,61.10
2017-09-06T11:20:45.434Z,60.90
2017-09-06T11:23:13.039Z,61.60
2017-09-06T11:25:40.596Z,59.30
2017-09-06T11:28:08.375Z,59.00
2017-09-06T11:30:35.919Z,58.70
2017-09-06T11:33:03.470Z,57.80
2017-09-06T11:35:31.066Z,58.30
2017-09-06T11:37:58.640Z,57.70
2017-09-06T11:40:26.200Z,57.30
2017-09-06T11:42:53.757Z,57.60
2017-09-06T11:45:21.948Z,57.60
2017-09-06T11:47:49.522Z,58.40
2017-09-06T11:50:17.113Z,58.30
2017-09-06T11:52:44.679Z,58.50
2017-09-06T11:55:12.264Z,57.30
2017-09-06T11:57:39.871Z,56.20
2017-09-06T12:00:08.045Z,56.00
2017-09-06T12:02:35.888Z,55.80
2017-09-06T12:05:03.430Z,55.10
2017-09-06T12:07:31.003Z,55.80
2017-09-06T12:09:58.595Z,55.80
2017-09-06T12:12:26.146Z,55.70
2017-09-06T12:14:53.751Z,56.50
2017-09-06T12:17:21.307Z,56.60
2017-09-06T12:19:48.890Z,56.20
2017-09-06T12:22:17.500Z,56.10
2017-09-06T12:24:45.054Z,55.30
2017-09-06T12:27:12.596Z,54.90
2017-09-06T12:29:40.181Z,54.90
2017-09-06T12:32:07.731Z,55.30
2017-09-06T12:34:35.302Z,55.00
2017-09-06T12:37:02.858Z,55.80
2017-09-06T12:39:30.392Z,56.00
2017-09-06T12:41:58.840Z,56.50
2017-09-06T12:44:26.467Z,58.00
2017-09-06T12:46:54.019Z,58.10
2017-09-06T12:49:21.566Z,58.20
2017-09-06T12:51:50.056Z,59.00
2017-09-06T12:54:17.673Z,59.70
2017-09-06T12:56:45.380Z,59.90
2017-09-06T12:59:12.960Z,59.00
2017-09-06T13:01:41.444Z,58.30
2017-09-06T13:04:09.189Z,57.40
2017-09-06T13:06:36.749Z,56.70
2017-09-06T13:09:04.311Z,55.90
2017-09-06T13:11:31.893Z,55.80
2017-09-06T13:13:59.470Z,55.60
2017-09-06T13:16:27.102Z,55.80
2017-09-06T13:18:54.663Z,57.40
2017-09-06T13:21:22.258Z,59.70
2017-09-06T13:23:49.836Z,62.10
2017-09-06T13:26:17.377Z,62.20
2017-09-06T13:28:44.942Z,62.10
2017-09-06T13:31:12.521Z,59.90
2017-09-06T13:33:40.095Z,59.90
2017-09-06T13:36:07.665Z,58.60
2017-09-06T13:38:35.230Z,58.60
2017-09-06T13:41:02.777Z,58.00
2017-09-06T13:43:30.671Z,56.80
2017-09-06T13:45:58.242Z,55.90
2017-09-06T13:48:25.794Z,54.10
2017-09-06T13:50:53.364Z,53.50
2017-09-06T13:53:20.978Z,53.30
2017-09-06T13:55:48.575Z,53.10
2017-09-06T13:58:16.142Z,52.90
2017-09-06T14:00:43.766Z,53.20
2017-09-06T14:03:11.334Z,53.40
2017-09-06T14:05:38.932Z,54.30
2017-09-06T14:08:11.099Z,55.70
2017-09-06T14:10:42.468Z,56.90
2017-09-06T14:13:10.877Z,56.40
2017-09-06T14:15:38.486Z,56.80
2017-09-06T14:18:06.676Z,56.40
2017-09-06T14:20:34.558Z,57.10
2017-09-06T14:23:02.338Z,57.60
2017-09-06T14:25:31.513Z,57.40
2017-09-06T14:27:59.096Z,58.20
2017-09-06T14:30:26.711Z,58.20
2017-09-06T14:32:54.306Z,58.80
2017-09-06T14:35:21.927Z,60.40
2017-09-06T14:37:49.511Z,63.70
2017-09-06T14:40:17.045Z,65.40
2017-09-06T14:42:44.635Z,63.90
2017-09-06T14:45:13.004Z,63.40
2017-09-06T14:47:40.546Z,62.80
2017-09-06T14:50:08.119Z,63.90
2017-09-06T14:52:35.680Z,62.50
2017-09-06T14:55:03.284Z,60.20
2017-09-06T14:57:30.933Z,63.50
2017-09-06T14:59:58.563Z,66.60
2017-09-06T15:02:26.135Z,66.20
2017-09-06T15:04:54.326Z,69.10
2017-09-06T15:07:21.897Z,70.10
2017-09-06T15:09:49.504Z,69.80
2017-09-06T15:12:17.117Z,71.00
2017-09-06T15:14:44.657Z,71.40
2017-09-06T15:17:12.199Z,70.40
2017-09-06T15:19:39.739Z,69.60
2017-09-06T15:22:07.345Z,68.90
2017-09-06T15:24:35.238Z,68.30
2017-09-06T15:27:02.798Z,69.20
2017-09-06T15:29:30.381Z,69.80
2017-09-06T15:31:57.976Z,69.10
2017-09-06T15:34:25.540Z,68.30
2017-09-06T15:36:53.129Z,67.40
2017-09-06T15:39:21.329Z,67.00
2017-09-06T15:41:48.865Z,64.20
2017-09-06T15:44:16.430Z,63.20
2017-09-06T15:46:43.990Z,63.80
2017-09-06T15:49:12.073Z,63.50
2017-09-06T15:51:39.782Z,63.50
2017-09-06T15:54:07.922Z,61.70
2017-09-06T15:56:35.494Z,62.60
2017-09-06T15:59:03.092Z,62.10
2017-09-06T16:01:30.660Z,62.70
2017-09-06T16:03:58.214Z,62.60
2017-09-06T16:06:26.137Z,62.10
2017-09-06T16:08:53.750Z,63.70
2017-09-06T16:11:22.070Z,63.30
2017-09-06T16:13:49.649Z,64.10
2017-09-06T16:16:17.245Z,65.20
2017-09-06T16:18:44.786Z,66.40
2017-09-06T16:21:12.357Z,68.80
2017-09-06T16:23:39.946Z,69.80
2017-09-06T16:26:07.487Z,71.70
2017-09-06T16:28:35.061Z,72.50
2017-09-06T16:31:02.611Z,74.60
2017-09-06T16:33:30.921Z,75.90
2017-09-06T16:35:58.509Z,77.40
2017-09-06T16:38:26.088Z,77.00
2017-09-06T16:40:53.690Z,79.20
2017-09-06T16:43:21.733Z,77.90
2017-09-06T16:45:49.307Z,77.20
2017-09-06T16:48:16.890Z,76.70
2017-09-06T16:50:44.481Z,75.70
2017-09-06T16:53:12.033Z,74.50
2017-09-06T16:55:39.648Z,72.90
2017-09-06T16:58:07.214Z,71.30
2017-09-06T17:00:34.829Z,71.40
2017-09-06T17:03:02.378Z,72.00
2017-09-06T17:05:29.941Z,71.00
2017-09-06T17:07:57.555Z,73.40
2017-09-06T17:10:25.166Z,73.00
2017-09-06T17:12:52.714Z,72.00
2017-09-06T17:15:20.258Z,72.40
2017-09-06T17:17:47.850Z,72.30
2017-09-06T17:20:15.420Z,71.90
2017-09-06T17:22:42.977Z,72.90
2017-09-06T17:25:10.542Z,72.80
2017-09-06T17:27:38.124Z,73.00
2017-09-06T17:30:05.710Z,72.10
2017-09-06T17:32:33.284Z,73.40
2017-09-06T17:35:00.848Z,73.90
2017-09-06T17:37:28.408Z,73.60
2017-09-06T17:39:55.958Z,73.80
2017-09-06T17:42:23.625Z,75.00
2017-09-06T17:44:51.195Z,74.90
2017-09-06T17:47:18.823Z,74.30
2017-09-06T17:49:46.370Z,75.20
2017-09-06T17:52:13.925Z,74.60
2017-09-06T17:54:41.532Z,75.10
2017-09-06T17:57:09.100Z,75.20
2017-09-06T17:59:36.689Z,75.30
2017-09-06T18:02:04.257Z,75.50
2017-09-06T18:04:32.648Z,75.60
2017-09-06T18:07:00.518Z,76.20
2017-09-06T18:09:28.071Z,75.70
2017-09-06T18:11:55.677Z,74.90
2017-09-06T18:14:23.511Z,75.60
2017-09-06T18:16:51.478Z,74.50
2017-09-06T18:19:19.549Z,74.20
2017-09-06T18:21:47.118Z,74.30
2017-09-06T18:24:14.673Z,74.80
2017-09-06T18:26:42.272Z,74.60
2017-09-06T18:29:09.868Z,74.40
2017-09-06T18:31:37.773Z,74.50
2017-09-06T18:34:05.372Z,73.70
2017-09-06T18:36:33.867Z,73.40
2017-09-06T18:39:01.481Z,73.70
2017-09-06T18:41:29.093Z,74.80
2017-09-06T18:43:57.575Z,74.40
2017-09-06T18:46:25.164Z,74.20
2017-09-06T18:48:52.720Z,74.70
2017-09-06T18:51:20.309Z,74.90
2017-09-06T18:53:47.906Z,76.30
2017-09-06T18:56:15.468Z,76.00
2017-09-06T18:58:43.131Z,76.30
2017-09-06T19:01:10.715Z,76.80
2017-09-06T19:03:38.284Z,76.50
2017-09-06T19:06:05.842Z,77.30
2017-09-06T19:08:33.443Z,77.80
2017-09-06T19:11:01.037Z,77.40
2017-09-06T19:13:28.624Z,77.90
2017-09-06T19:15:56.250Z,78.50
2017-09-06T19:18:24.706Z,78.60
2017-09-06T19:20:52.279Z,79.20
2017-09-06T19:23:19.844Z,79.50
2017-09-06T19:25:47.447Z,79.30
2017-09-06T19:28:15.005Z,79.50
2017-09-06T19:30:42.546Z,79.70
2017-09-06T19:33:10.153Z,79.90
2017-09-06T19:35:37.715Z,79.90
2017-09-06T19:38:05.539Z,80.60
2017-09-06T19:40:33.114Z,80.20
2017-09-06T19:43:00.958Z,80.40
2017-09-06T19:45:29.118Z,80.90
2017-09-06T19:47:56.689Z,81.10
2017-09-06T19:50:24.515Z,81.10
2017-09-06T19:52:52.085Z,81.30
2017-09-06T19:55:19.664Z,81.40
2017-09-06T19:57:47.281Z,81.10
2017-09-06T20:00:14.888Z,81.00
2017-09-06T20:02:42.473Z,81.00
2017-09-06T20:05:10.080Z,81.40
2017-09-06T20:07:37.639Z,81.20
2017-09-06T20:10:06.432Z,80.80
2017-09-06T20:12:34.034Z,80.80
2017-09-06T20:15:01.614Z,80.80
2017-09-06T20:17:29.185Z,80.20
2017-09-06T20:19:56.745Z,79.40
2017-09-06T20:22:24.334Z,79.20
2017-09-06T20:24:51.956Z,79.20
2017-09-06T20:27:19.697Z,78.50
2017-09-06T20:29:47.326Z,78.20
2017-09-06T20:32:14.976Z,77.10
2017-09-06T20:34:42.579Z,76.40
2017-09-06T20:37:13.242Z,76.20
2017-09-06T20:39:41.839Z,75.80
2017-09-06T20:42:09.393Z,75.70
2017-09-06T20:44:36.932Z,75.60
2017-09-06T20:47:04.533Z,75.60
2017-09-06T20:49:32.108Z,75.60
2017-09-06T20:51:59.691Z,75.70
2017-09-06T20:54:27.277Z,76.40
2017-09-06T20:56:54.830Z,76.30
2017-09-06T20:59:22.424Z,76.50
2017-09-06T21:01:49.967Z,76.60
2017-09-06T21:04:19.909Z,77.80
2017-09-06T21:06:47.468Z,77.20
2017-09-06T21:09:15.629Z,77.60
2017-09-06T21:11:43.210Z,78.30
2017-09-06T21:14:10.946Z,78.00
2017-09-06T21:16:38.498Z,79.10
2017-09-06T21:19:06.094Z,78.60
2017-09-06T21:21:34.237Z,78.90
2017-09-06T21:24:01.839Z,79.20
2017-09-06T21:26:29.397Z,79.40
2017-09-06T21:28:56.933Z,80.20
2017-09-06T21:31:24.515Z,79.60
2017-09-06T21:33:52.430Z,79.70
2017-09-06T21:36:20.034Z,80.20
2017-09-06T21:38:47.594Z,80.60
2017-09-06T21:41:15.283Z,80.70
2017-09-06T21:43:42.883Z,80.80
2017-09-06T21:46:10.445Z,81.10
2017-09-06T21:48:38.051Z,81.80
2017-09-06T21:51:05.627Z,81.80
2017-09-06T21:53:33.203Z,81.80
2017-09-06T21:56:00.791Z,81.30
2017-09-06T21:58:28.360Z,81.20
2017-09-06T22:00:55.973Z,81.40
2017-09-06T22:03:23.594Z,81.70
2017-09-06T22:05:51.176Z,81.60
2017-09-06T22:08:18.722Z,81.60
2017-09-06T22:10:46.283Z,80.30
2017-09-06T22:13:13.878Z,80.20
2017-09-06T22:15:41.755Z,81.40
2017-09-06T22:18:09.353Z,80.50
2017-09-06T22:20:36.930Z,80.20
2017-09-06T22:23:04.489Z,80.40
2017-09-06T22:25:32.887Z,80.20
2017-09-06T22:28:00.476Z,80.80
2017-09-06T22:30:28.110Z,80.80
2017-09-06T22:32:56.305Z,80.70
2017-09-06T22:35:23.904Z,80.10
2017-09-06T22:37:51.452Z,79.80
2017-09-06T22:40:19.042Z,80.20
2017-09-06T22:42:46.604Z,80.30
2017-09-06T22:45:14.162Z,79.90
2017-09-06T22:47:42.517Z,80.10
2017-09-06T22:50:10.094Z,79.90
2017-09-06T22:52:37.672Z,79.60
2017-09-06T22:55:05.281Z,79.90
2017-09-06T22:57:32.890Z,80.20
2017-09-06T23:00:00.550Z,79.90
2017-09-06T23:02:28.152Z,79.40
2017-09-06T23:04:55.763Z,79.40
2017-09-06T23:07:23.333Z,79.10
2017-09-06T23:09:50.909Z,79.20
2017-09-06T23:14:52.305Z,79.60
2017-09-06T23:17:20.282Z,79.40
2017-09-06T23:19:47.873Z,79.80
2017-09-06T23:22:15.563Z,80.20
2017-09-06T23:24:43.114Z,80.10
2017-09-06T23:27:11.494Z,80.60
2017-09-06T23:29:39.046Z,80.20
2017-09-06T23:32:06.666Z,80.10
2017-09-06T23:34:34.225Z,80.30
2017-09-06T23:37:01.822Z,80.50
2017-09-06T23:39:29.420Z,80.30
2017-09-06T23:41:56.987Z,80.40
2017-09-06T23:44:24.566Z,80.40
2017-09-06T23:46:52.116Z,80.70
2017-09-06T23:49:19.711Z,80.70
2017-09-06T23:51:47.306Z,80.40
2017-09-06T23:54:15.569Z,80.30
2017-09-06T23:56:44.001Z,80.60
2017-09-06T23:59:11.639Z,80.30
